Terminal Aerodrome Forecast
Issued by NWS

Home | Current Version | Previous Version | Text Only | Print | Product List | Glossary On
Versions: 1 2 3 4 5 6 7 8 9 10 11 12 13 14 15 16 17 18 19
000
FTUS46 KPDT 171720
TAFDLS
TAF
KDLS 171720Z 1718/1818 VRB04KT P6SM BKN020 OVC040
     FM180300 31008KT P6SM BKN020 OVC040
     FM181200 31009KT 5SM -RA BR OVC030=

USA.gov is the U.S. government's official web portal to all federal, state and local government web resources and services.